sensor_id;sensor_type;location;lat;lon;timestamp;P1;durP1;ratioP1;P2;durP2;ratioP2
25327;SDS011;13279;51.300;12.394;2022-11-15T00:02:22;24.43;;;11.70;;
25327;SDS011;13279;51.300;12.394;2022-11-15T00:05:11;21.10;;;11.17;;
25327;SDS011;13279;51.300;12.394;2022-11-15T00:07:58;21.53;;;12.03;;
25327;SDS011;13279;51.300;12.394;2022-11-15T00:10:54;19.07;;;10.47;;
25327;SDS011;13279;51.300;12.394;2022-11-15T00:13:41;21.63;;;11.57;;
25327;SDS011;13279;51.300;12.394;2022-11-15T00:16:28;18.03;;;10.43;;
25327;SDS011;13279;51.300;12.394;2022-11-15T00:19:14;21.63;;;12.13;;
25327;SDS011;13279;51.300;12.394;2022-11-15T00:22:00;23.40;;;11.87;;
25327;SDS011;13279;51.300;12.394;2022-11-15T00:24:46;24.40;;;12.03;;
25327;SDS011;13279;51.300;12.394;2022-11-15T00:27:34;18.77;;;10.53;;
25327;SDS011;13279;51.300;12.394;2022-11-15T00:30:21;19.17;;;10.33;;
25327;SDS011;13279;51.300;12.394;2022-11-15T00:33:08;23.03;;;11.37;;
25327;SDS011;13279;51.300;12.394;2022-11-15T00:35:59;16.57;;;10.20;;
25327;SDS011;13279;51.300;12.394;2022-11-15T00:38:46;19.00;;;10.27;;
25327;SDS011;13279;51.300;12.394;2022-11-15T00:41:32;16.93;;;9.73;;
25327;SDS011;13279;51.300;12.394;2022-11-15T00:44:20;15.57;;;10.00;;
25327;SDS011;13279;51.300;12.394;2022-11-15T00:47:06;18.13;;;9.60;;
25327;SDS011;13279;51.300;12.394;2022-11-15T00:49:52;21.07;;;9.87;;
25327;SDS011;13279;51.300;12.394;2022-11-15T00:52:39;16.33;;;9.37;;
25327;SDS011;13279;51.300;12.394;2022-11-15T00:55:25;22.63;;;10.00;;
25327;SDS011;13279;51.300;12.394;2022-11-15T00:58:11;17.57;;;9.77;;
25327;SDS011;13279;51.300;12.394;2022-11-15T01:01:06;16.83;;;9.73;;
25327;SDS011;13279;51.300;12.394;2022-11-15T01:03:53;20.73;;;10.80;;
25327;SDS011;13279;51.300;12.394;2022-11-15T01:06:39;17.17;;;9.40;;
25327;SDS011;13279;51.300;12.394;2022-11-15T01:09:26;15.00;;;9.90;;
25327;SDS011;13279;51.300;12.394;2022-11-15T01:12:12;17.80;;;9.57;;
25327;SDS011;13279;51.300;12.394;2022-11-15T01:14:58;17.53;;;9.23;;
25327;SDS011;13279;51.300;12.394;2022-11-15T01:17:46;19.00;;;9.10;;
25327;SDS011;13279;51.300;12.394;2022-11-15T01:20:32;22.93;;;9.23;;
25327;SDS011;13279;51.300;12.394;2022-11-15T01:23:18;15.13;;;9.47;;
25327;SDS011;13279;51.300;12.394;2022-11-15T01:26:06;15.77;;;9.17;;
25327;SDS011;13279;51.300;12.394;2022-11-15T01:28:55;18.90;;;9.83;;
25327;SDS011;13279;51.300;12.394;2022-11-15T01:31:42;18.77;;;8.83;;
25327;SDS011;13279;51.300;12.394;2022-11-15T01:34:30;14.80;;;8.87;;
25327;SDS011;13279;51.300;12.394;2022-11-15T01:37:17;16.33;;;9.27;;
25327;SDS011;13279;51.300;12.394;2022-11-15T01:40:04;14.10;;;9.17;;
25327;SDS011;13279;51.300;12.394;2022-11-15T01:42:51;14.07;;;8.20;;
25327;SDS011;13279;51.300;12.394;2022-11-15T01:45:37;15.93;;;8.40;;
25327;SDS011;13279;51.300;12.394;2022-11-15T01:48:24;14.27;;;8.93;;
25327;SDS011;13279;51.300;12.394;2022-11-15T01:51:19;17.30;;;8.80;;
25327;SDS011;13279;51.300;12.394;2022-11-15T01:54:08;20.60;;;10.23;;
25327;SDS011;13279;51.300;12.394;2022-11-15T01:57:01;15.50;;;8.50;;
25327;SDS011;13279;51.300;12.394;2022-11-15T01:59:51;14.70;;;9.30;;
25327;SDS011;13279;51.300;12.394;2022-11-15T02:02:38;15.40;;;8.50;;
25327;SDS011;13279;51.300;12.394;2022-11-15T02:05:24;15.87;;;8.97;;
25327;SDS011;13279;51.300;12.394;2022-11-15T02:08:12;19.37;;;8.53;;
25327;SDS011;13279;51.300;12.394;2022-11-15T02:11:04;15.70;;;8.87;;
25327;SDS011;13279;51.300;12.394;2022-11-15T02:13:53;17.20;;;8.43;;
25327;SDS011;13279;51.300;12.394;2022-11-15T02:16:41;19.33;;;9.43;;
25327;SDS011;13279;51.300;12.394;2022-11-15T02:19:46;13.67;;;8.13;;
25327;SDS011;13279;51.300;12.394;2022-11-15T02:23:05;15.03;;;8.27;;
25327;SDS011;13279;51.300;12.394;2022-11-15T02:26:27;13.50;;;7.80;;
25327;SDS011;13279;51.300;12.394;2022-11-15T02:29:39;16.47;;;7.87;;
25327;SDS011;13279;51.300;12.394;2022-11-15T02:32:39;14.47;;;9.07;;
25327;SDS011;13279;51.300;12.394;2022-11-15T02:35:31;18.00;;;9.30;;
25327;SDS011;13279;51.300;12.394;2022-11-15T02:38:27;14.13;;;9.47;;
25327;SDS011;13279;51.300;12.394;2022-11-15T02:41:20;16.03;;;8.40;;
25327;SDS011;13279;51.300;12.394;2022-11-15T02:44:14;17.43;;;8.53;;
25327;SDS011;13279;51.300;12.394;2022-11-15T02:47:06;16.50;;;8.60;;
25327;SDS011;13279;51.300;12.394;2022-11-15T02:50:03;13.70;;;7.80;;
25327;SDS011;13279;51.300;12.394;2022-11-15T02:52:52;16.00;;;8.23;;
25327;SDS011;13279;51.300;12.394;2022-11-15T02:55:40;14.63;;;8.17;;
25327;SDS011;13279;51.300;12.394;2022-11-15T02:58:38;11.60;;;7.00;;
25327;SDS011;13279;51.300;12.394;2022-11-15T03:01:43;16.23;;;7.50;;
25327;SDS011;13279;51.300;12.394;2022-11-15T03:04:43;14.03;;;7.93;;
25327;SDS011;13279;51.300;12.394;2022-11-15T03:07:34;15.53;;;7.60;;
25327;SDS011;13279;51.300;12.394;2022-11-15T03:10:26;15.30;;;8.00;;
25327;SDS011;13279;51.300;12.394;2022-11-15T03:13:23;14.63;;;8.10;;
25327;SDS011;13279;51.300;12.394;2022-11-15T03:16:15;13.17;;;7.63;;
25327;SDS011;13279;51.300;12.394;2022-11-15T03:19:06;13.37;;;7.73;;
25327;SDS011;13279;51.300;12.394;2022-11-15T03:21:58;15.87;;;7.80;;
25327;SDS011;13279;51.300;12.394;2022-11-15T03:24:51;12.40;;;7.53;;
25327;SDS011;13279;51.300;12.394;2022-11-15T03:27:43;12.93;;;7.60;;
25327;SDS011;13279;51.300;12.394;2022-11-15T03:30:34;15.30;;;7.10;;
25327;SDS011;13279;51.300;12.394;2022-11-15T03:33:21;13.43;;;7.97;;
25327;SDS011;13279;51.300;12.394;2022-11-15T03:36:08;14.00;;;7.10;;
25327;SDS011;13279;51.300;12.394;2022-11-15T03:38:55;13.10;;;7.93;;
25327;SDS011;13279;51.300;12.394;2022-11-15T03:41:48;11.00;;;7.20;;
25327;SDS011;13279;51.300;12.394;2022-11-15T03:44:43;11.73;;;7.30;;
25327;SDS011;13279;51.300;12.394;2022-11-15T03:47:36;13.67;;;7.77;;
25327;SDS011;13279;51.300;12.394;2022-11-15T03:50:27;16.07;;;8.43;;
25327;SDS011;13279;51.300;12.394;2022-11-15T03:53:14;12.70;;;7.70;;
25327;SDS011;13279;51.300;12.394;2022-11-15T03:56:02;15.83;;;8.27;;
25327;SDS011;13279;51.300;12.394;2022-11-15T03:58:50;17.87;;;8.00;;
25327;SDS011;13279;51.300;12.394;2022-11-15T04:01:37;12.33;;;7.83;;
25327;SDS011;13279;51.300;12.394;2022-11-15T04:04:23;12.87;;;8.23;;
25327;SDS011;13279;51.300;12.394;2022-11-15T04:07:10;12.80;;;7.23;;
25327;SDS011;13279;51.300;12.394;2022-11-15T04:09:57;15.63;;;7.77;;
25327;SDS011;13279;51.300;12.394;2022-11-15T04:12:49;12.17;;;7.50;;
25327;SDS011;13279;51.300;12.394;2022-11-15T04:15:37;12.57;;;7.43;;
25327;SDS011;13279;51.300;12.394;2022-11-15T04:18:23;14.33;;;7.87;;
25327;SDS011;13279;51.300;12.394;2022-11-15T04:21:10;12.73;;;6.83;;
25327;SDS011;13279;51.300;12.394;2022-11-15T04:24:14;14.67;;;7.30;;
25327;SDS011;13279;51.300;12.394;2022-11-15T04:27:01;11.57;;;6.93;;
25327;SDS011;13279;51.300;12.394;2022-11-15T04:29:47;14.63;;;8.17;;
25327;SDS011;13279;51.300;12.394;2022-11-15T04:32:35;12.90;;;7.13;;
25327;SDS011;13279;51.300;12.394;2022-11-15T04:35:22;16.37;;;7.23;;
25327;SDS011;13279;51.300;12.394;2022-11-15T04:38:09;12.33;;;7.03;;
25327;SDS011;13279;51.300;12.394;2022-11-15T04:40:56;15.00;;;7.67;;
25327;SDS011;13279;51.300;12.394;2022-11-15T04:43:42;15.07;;;7.87;;
25327;SDS011;13279;51.300;12.394;2022-11-15T04:46:29;15.17;;;7.17;;
25327;SDS011;13279;51.300;12.394;2022-11-15T04:49:16;11.77;;;6.90;;
25327;SDS011;13279;51.300;12.394;2022-11-15T04:52:02;14.20;;;7.70;;
25327;SDS011;13279;51.300;12.394;2022-11-15T04:54:49;15.70;;;8.07;;
25327;SDS011;13279;51.300;12.394;2022-11-15T04:57:35;15.37;;;7.70;;
25327;SDS011;13279;51.300;12.394;2022-11-15T05:00:23;12.03;;;7.77;;
25327;SDS011;13279;51.300;12.394;2022-11-15T05:03:09;12.77;;;7.80;;
25327;SDS011;13279;51.300;12.394;2022-11-15T05:06:20;12.93;;;7.47;;
25327;SDS011;13279;51.300;12.394;2022-11-15T05:09:06;13.10;;;7.43;;
25327;SDS011;13279;51.300;12.394;2022-11-15T05:11:53;10.97;;;7.17;;
25327;SDS011;13279;51.300;12.394;2022-11-15T05:14:39;13.33;;;7.60;;
25327;SDS011;13279;51.300;12.394;2022-11-15T05:17:25;17.03;;;8.20;;
25327;SDS011;13279;51.300;12.394;2022-11-15T05:20:11;13.67;;;7.73;;
25327;SDS011;13279;51.300;12.394;2022-11-15T05:23:00;12.03;;;8.23;;
25327;SDS011;13279;51.300;12.394;2022-11-15T05:25:46;13.10;;;7.07;;
25327;SDS011;13279;51.300;12.394;2022-11-15T05:28:32;13.80;;;7.67;;
25327;SDS011;13279;51.300;12.394;2022-11-15T05:31:20;12.93;;;8.27;;
25327;SDS011;13279;51.300;12.394;2022-11-15T05:34:07;13.47;;;7.97;;
25327;SDS011;13279;51.300;12.394;2022-11-15T05:36:53;12.93;;;7.70;;
25327;SDS011;13279;51.300;12.394;2022-11-15T05:39:41;15.07;;;7.93;;
25327;SDS011;13279;51.300;12.394;2022-11-15T05:42:27;15.83;;;7.97;;
25327;SDS011;13279;51.300;12.394;2022-11-15T05:45:16;14.93;;;8.70;;
25327;SDS011;13279;51.300;12.394;2022-11-15T05:48:03;15.10;;;7.80;;
25327;SDS011;13279;51.300;12.394;2022-11-15T05:50:52;16.50;;;7.80;;
25327;SDS011;13279;51.300;12.394;2022-11-15T05:53:39;12.87;;;8.00;;
25327;SDS011;13279;51.300;12.394;2022-11-15T05:56:27;16.93;;;8.07;;
25327;SDS011;13279;51.300;12.394;2022-11-15T05:59:14;16.53;;;7.77;;
25327;SDS011;13279;51.300;12.394;2022-11-15T06:02:01;15.80;;;8.30;;
25327;SDS011;13279;51.300;12.394;2022-11-15T06:04:48;11.53;;;7.07;;
25327;SDS011;13279;51.300;12.394;2022-11-15T06:07:34;16.73;;;8.13;;
25327;SDS011;13279;51.300;12.394;2022-11-15T06:10:20;14.90;;;8.07;;
25327;SDS011;13279;51.300;12.394;2022-11-15T06:13:11;15.30;;;7.40;;
25327;SDS011;13279;51.300;12.394;2022-11-15T06:18:45;13.10;;;7.67;;
25327;SDS011;13279;51.300;12.394;2022-11-15T06:21:32;13.03;;;7.37;;
25327;SDS011;13279;51.300;12.394;2022-11-15T06:24:18;14.43;;;7.63;;
25327;SDS011;13279;51.300;12.394;2022-11-15T06:27:04;15.37;;;8.13;;
25327;SDS011;13279;51.300;12.394;2022-11-15T06:29:51;17.17;;;8.10;;
25327;SDS011;13279;51.300;12.394;2022-11-15T06:32:37;11.90;;;7.57;;
25327;SDS011;13279;51.300;12.394;2022-11-15T06:35:23;15.20;;;7.83;;
25327;SDS011;13279;51.300;12.394;2022-11-15T06:38:10;12.27;;;7.00;;
25327;SDS011;13279;51.300;12.394;2022-11-15T06:41:00;14.47;;;7.63;;
25327;SDS011;13279;51.300;12.394;2022-11-15T06:43:47;11.00;;;7.03;;
25327;SDS011;13279;51.300;12.394;2022-11-15T06:46:34;16.13;;;8.10;;
25327;SDS011;13279;51.300;12.394;2022-11-15T06:49:20;12.90;;;7.50;;
25327;SDS011;13279;51.300;12.394;2022-11-15T06:52:07;12.93;;;7.20;;
25327;SDS011;13279;51.300;12.394;2022-11-15T06:54:53;14.10;;;8.57;;
25327;SDS011;13279;51.300;12.394;2022-11-15T06:57:45;11.50;;;7.40;;
25327;SDS011;13279;51.300;12.394;2022-11-15T07:00:32;11.10;;;6.87;;
25327;SDS011;13279;51.300;12.394;2022-11-15T07:03:19;11.83;;;6.57;;
25327;SDS011;13279;51.300;12.394;2022-11-15T07:06:06;13.03;;;6.87;;
25327;SDS011;13279;51.300;12.394;2022-11-15T07:08:53;10.07;;;7.00;;
25327;SDS011;13279;51.300;12.394;2022-11-15T07:11:39;11.83;;;7.73;;
25327;SDS011;13279;51.300;12.394;2022-11-15T07:14:25;14.27;;;6.53;;
25327;SDS011;13279;51.300;12.394;2022-11-15T07:17:11;11.33;;;7.43;;
25327;SDS011;13279;51.300;12.394;2022-11-15T07:19:59;10.27;;;6.60;;
25327;SDS011;13279;51.300;12.394;2022-11-15T07:22:45;9.63;;;6.70;;
25327;SDS011;13279;51.300;12.394;2022-11-15T07:25:31;12.23;;;7.20;;
25327;SDS011;13279;51.300;12.394;2022-11-15T07:28:18;10.33;;;6.80;;
25327;SDS011;13279;51.300;12.394;2022-11-15T07:31:04;12.33;;;6.67;;
25327;SDS011;13279;51.300;12.394;2022-11-15T07:33:52;9.00;;;5.73;;
25327;SDS011;13279;51.300;12.394;2022-11-15T07:36:40;9.33;;;5.90;;
25327;SDS011;13279;51.300;12.394;2022-11-15T07:39:28;10.23;;;6.00;;
25327;SDS011;13279;51.300;12.394;2022-11-15T07:42:14;12.80;;;5.93;;
25327;SDS011;13279;51.300;12.394;2022-11-15T07:45:18;12.43;;;5.77;;
25327;SDS011;13279;51.300;12.394;2022-11-15T07:48:05;8.97;;;6.30;;
25327;SDS011;13279;51.300;12.394;2022-11-15T07:50:51;11.03;;;6.33;;
25327;SDS011;13279;51.300;12.394;2022-11-15T07:53:39;10.23;;;5.90;;
25327;SDS011;13279;51.300;12.394;2022-11-15T07:56:25;10.80;;;6.73;;
25327;SDS011;13279;51.300;12.394;2022-11-15T07:59:11;13.33;;;6.20;;
25327;SDS011;13279;51.300;12.394;2022-11-15T08:01:57;11.63;;;5.77;;
25327;SDS011;13279;51.300;12.394;2022-11-15T08:04:44;9.33;;;6.43;;
25327;SDS011;13279;51.300;12.394;2022-11-15T08:07:30;12.03;;;5.53;;
25327;SDS011;13279;51.300;12.394;2022-11-15T08:10:18;7.90;;;4.77;;
25327;SDS011;13279;51.300;12.394;2022-11-15T08:13:05;8.03;;;5.17;;
25327;SDS011;13279;51.300;12.394;2022-11-15T08:15:56;10.57;;;5.87;;
25327;SDS011;13279;51.300;12.394;2022-11-15T08:18:43;8.70;;;5.10;;
25327;SDS011;13279;51.300;12.394;2022-11-15T08:21:30;9.70;;;5.40;;
25327;SDS011;13279;51.300;12.394;2022-11-15T08:24:16;11.57;;;5.43;;
25327;SDS011;13279;51.300;12.394;2022-11-15T08:27:03;9.70;;;5.67;;
25327;SDS011;13279;51.300;12.394;2022-11-15T08:29:59;9.67;;;5.53;;
25327;SDS011;13279;51.300;12.394;2022-11-15T08:32:45;6.73;;;5.33;;
25327;SDS011;13279;51.300;12.394;2022-11-15T08:35:32;6.00;;;5.23;;
25327;SDS011;13279;51.300;12.394;2022-11-15T08:38:18;7.10;;;5.40;;
25327;SDS011;13279;51.300;12.394;2022-11-15T08:41:04;10.03;;;4.77;;
25327;SDS011;13279;51.300;12.394;2022-11-15T08:43:52;12.23;;;5.27;;
25327;SDS011;13279;51.300;12.394;2022-11-15T08:46:39;9.90;;;5.10;;
25327;SDS011;13279;51.300;12.394;2022-11-15T08:49:25;8.97;;;4.90;;
25327;SDS011;13279;51.300;12.394;2022-11-15T08:52:11;6.13;;;4.47;;
25327;SDS011;13279;51.300;12.394;2022-11-15T08:54:57;6.73;;;4.67;;
25327;SDS011;13279;51.300;12.394;2022-11-15T08:57:43;7.57;;;4.53;;
25327;SDS011;13279;51.300;12.394;2022-11-15T09:00:31;8.37;;;4.70;;
25327;SDS011;13279;51.300;12.394;2022-11-15T09:03:17;11.00;;;4.80;;
25327;SDS011;13279;51.300;12.394;2022-11-15T09:06:04;6.30;;;4.37;;
25327;SDS011;13279;51.300;12.394;2022-11-15T09:08:50;8.23;;;4.70;;
25327;SDS011;13279;51.300;12.394;2022-11-15T09:11:36;5.83;;;4.17;;
25327;SDS011;13279;51.300;12.394;2022-11-15T09:14:22;11.33;;;5.23;;
25327;SDS011;13279;51.300;12.394;2022-11-15T09:17:09;6.47;;;4.73;;
25327;SDS011;13279;51.300;12.394;2022-11-15T09:19:55;6.30;;;4.57;;
25327;SDS011;13279;51.300;12.394;2022-11-15T09:22:41;8.63;;;4.70;;
25327;SDS011;13279;51.300;12.394;2022-11-15T09:25:29;5.13;;;4.10;;
25327;SDS011;13279;51.300;12.394;2022-11-15T09:28:16;6.53;;;4.10;;
25327;SDS011;13279;51.300;12.394;2022-11-15T09:31:03;4.53;;;4.13;;
25327;SDS011;13279;51.300;12.394;2022-11-15T09:33:52;5.83;;;4.37;;
25327;SDS011;13279;51.300;12.394;2022-11-15T09:36:38;8.20;;;4.17;;
25327;SDS011;13279;51.300;12.394;2022-11-15T09:39:25;10.43;;;4.70;;
25327;SDS011;13279;51.300;12.394;2022-11-15T09:42:20;7.53;;;4.97;;
25327;SDS011;13279;51.300;12.394;2022-11-15T09:45:17;6.67;;;4.77;;
25327;SDS011;13279;51.300;12.394;2022-11-15T09:48:17;5.67;;;4.60;;
25327;SDS011;13279;51.300;12.394;2022-11-15T09:51:43;11.10;;;4.50;;
25327;SDS011;13279;51.300;12.394;2022-11-15T09:54:21;11.13;;;5.23;;
25327;SDS011;13279;51.300;12.394;2022-11-15T09:56:54;5.70;;;4.23;;
25327;SDS011;13279;51.300;12.394;2022-11-15T09:59:27;7.30;;;4.97;;
25327;SDS011;13279;51.300;12.394;2022-11-15T10:02:12;7.17;;;4.27;;
25327;SDS011;13279;51.300;12.394;2022-11-15T10:04:50;9.23;;;4.70;;
25327;SDS011;13279;51.300;12.394;2022-11-15T10:07:23;7.30;;;4.20;;
25327;SDS011;13279;51.300;12.394;2022-11-15T10:09:55;9.10;;;4.97;;
25327;SDS011;13279;51.300;12.394;2022-11-15T10:12:29;9.30;;;4.17;;
25327;SDS011;13279;51.300;12.394;2022-11-15T10:14:58;6.63;;;4.40;;
25327;SDS011;13279;51.300;12.394;2022-11-15T10:17:36;5.47;;;4.30;;
25327;SDS011;13279;51.300;12.394;2022-11-15T10:20:17;6.27;;;4.13;;
25327;SDS011;13279;51.300;12.394;2022-11-15T10:22:49;6.70;;;4.53;;
25327;SDS011;13279;51.300;12.394;2022-11-15T10:25:19;6.63;;;4.60;;
25327;SDS011;13279;51.300;12.394;2022-11-15T10:27:54;6.80;;;3.63;;
25327;SDS011;13279;51.300;12.394;2022-11-15T10:30:23;9.37;;;3.93;;
25327;SDS011;13279;51.300;12.394;2022-11-15T10:32:58;8.83;;;4.50;;
25327;SDS011;13279;51.300;12.394;2022-11-15T10:35:36;8.70;;;4.20;;
25327;SDS011;13279;51.300;12.394;2022-11-15T10:38:08;5.20;;;3.97;;
25327;SDS011;13279;51.300;12.394;2022-11-15T10:40:38;6.07;;;3.67;;
25327;SDS011;13279;51.300;12.394;2022-11-15T10:43:13;5.70;;;4.00;;
25327;SDS011;13279;51.300;12.394;2022-11-15T10:45:42;9.80;;;3.43;;
25327;SDS011;13279;51.300;12.394;2022-11-15T10:48:20;11.67;;;3.60;;
25327;SDS011;13279;51.300;12.394;2022-11-15T10:50:50;6.07;;;4.00;;
25327;SDS011;13279;51.300;12.394;2022-11-15T10:53:25;8.57;;;4.10;;
25327;SDS011;13279;51.300;12.394;2022-11-15T10:55:57;5.80;;;3.90;;
25327;SDS011;13279;51.300;12.394;2022-11-15T10:58:32;6.97;;;4.00;;
25327;SDS011;13279;51.300;12.394;2022-11-15T11:01:09;4.27;;;3.70;;
25327;SDS011;13279;51.300;12.394;2022-11-15T11:03:39;5.83;;;4.03;;
25327;SDS011;13279;51.300;12.394;2022-11-15T11:06:09;6.13;;;3.60;;
25327;SDS011;13279;51.300;12.394;2022-11-15T11:08:39;5.87;;;3.30;;
25327;SDS011;13279;51.300;12.394;2022-11-15T11:11:19;5.77;;;3.70;;
25327;SDS011;13279;51.300;12.394;2022-11-15T11:13:46;5.27;;;3.80;;
25327;SDS011;13279;51.300;12.394;2022-11-15T11:19:17;6.80;;;3.60;;
25327;SDS011;13279;51.300;12.394;2022-11-15T11:22:01;4.30;;;3.27;;
25327;SDS011;13279;51.300;12.394;2022-11-15T11:24:38;6.33;;;3.60;;
25327;SDS011;13279;51.300;12.394;2022-11-15T11:27:17;6.60;;;3.70;;
25327;SDS011;13279;51.300;12.394;2022-11-15T11:29:57;9.03;;;4.07;;
25327;SDS011;13279;51.300;12.394;2022-11-15T11:35:28;5.60;;;3.10;;
25327;SDS011;13279;51.300;12.394;2022-11-15T11:38:03;6.57;;;3.97;;
25327;SDS011;13279;51.300;12.394;2022-11-15T11:40:44;6.03;;;3.40;;
25327;SDS011;13279;51.300;12.394;2022-11-15T11:43:24;7.27;;;3.50;;
25327;SDS011;13279;51.300;12.394;2022-11-15T11:46:10;4.67;;;3.20;;
25327;SDS011;13279;51.300;12.394;2022-11-15T11:48:52;7.03;;;3.33;;
25327;SDS011;13279;51.300;12.394;2022-11-15T11:51:24;5.57;;;3.80;;
25327;SDS011;13279;51.300;12.394;2022-11-15T11:53:56;4.53;;;3.10;;
25327;SDS011;13279;51.300;12.394;2022-11-15T11:56:33;8.03;;;2.90;;
25327;SDS011;13279;51.300;12.394;2022-11-15T11:59:05;4.70;;;3.13;;
25327;SDS011;13279;51.300;12.394;2022-11-15T12:01:40;4.60;;;2.87;;
25327;SDS011;13279;51.300;12.394;2022-11-15T12:04:11;3.50;;;2.90;;
25327;SDS011;13279;51.300;12.394;2022-11-15T12:06:45;4.40;;;2.87;;
25327;SDS011;13279;51.300;12.394;2022-11-15T12:09:17;6.67;;;3.63;;
25327;SDS011;13279;51.300;12.394;2022-11-15T12:11:52;4.40;;;3.17;;
25327;SDS011;13279;51.300;12.394;2022-11-15T12:14:26;9.27;;;3.37;;
25327;SDS011;13279;51.300;12.394;2022-11-15T12:16:58;5.17;;;3.23;;
25327;SDS011;13279;51.300;12.394;2022-11-15T12:19:26;6.73;;;3.37;;
25327;SDS011;13279;51.300;12.394;2022-11-15T12:21:56;2.77;;;2.50;;
25327;SDS011;13279;51.300;12.394;2022-11-15T12:24:29;6.00;;;3.13;;
25327;SDS011;13279;51.300;12.394;2022-11-15T12:27:03;3.43;;;2.57;;
25327;SDS011;13279;51.300;12.394;2022-11-15T12:29:39;5.20;;;3.60;;
25327;SDS011;13279;51.300;12.394;2022-11-15T12:32:14;5.17;;;3.03;;
25327;SDS011;13279;51.300;12.394;2022-11-15T12:34:53;5.50;;;2.87;;
25327;SDS011;13279;51.300;12.394;2022-11-15T12:37:34;6.43;;;3.13;;
25327;SDS011;13279;51.300;12.394;2022-11-15T12:46:05;7.10;;;3.13;;
25327;SDS011;13279;51.300;12.394;2022-11-15T12:54:50;4.27;;;2.83;;
25327;SDS011;13279;51.300;12.394;2022-11-15T12:57:36;4.80;;;2.80;;
25327;SDS011;13279;51.300;12.394;2022-11-15T13:03:18;11.23;;;3.33;;
25327;SDS011;13279;51.300;12.394;2022-11-15T13:06:03;5.17;;;2.80;;
25327;SDS011;13279;51.300;12.394;2022-11-15T13:08:55;4.90;;;2.80;;
25327;SDS011;13279;51.300;12.394;2022-11-15T13:14:37;5.27;;;2.50;;
25327;SDS011;13279;51.300;12.394;2022-11-15T13:17:20;3.10;;;2.47;;
25327;SDS011;13279;51.300;12.394;2022-11-15T13:19:55;2.70;;;2.47;;
25327;SDS011;13279;51.300;12.394;2022-11-15T13:22:26;5.60;;;2.23;;
25327;SDS011;13279;51.300;12.394;2022-11-15T13:25:15;2.60;;;2.37;;
25327;SDS011;13279;51.300;12.394;2022-11-15T13:27:46;6.83;;;2.70;;
25327;SDS011;13279;51.300;12.394;2022-11-15T13:30:16;4.67;;;2.73;;
25327;SDS011;13279;51.300;12.394;2022-11-15T13:32:47;5.70;;;2.57;;
25327;SDS011;13279;51.300;12.394;2022-11-15T13:35:20;3.53;;;2.57;;
25327;SDS011;13279;51.300;12.394;2022-11-15T13:37:49;3.83;;;2.40;;
25327;SDS011;13279;51.300;12.394;2022-11-15T13:40:25;3.70;;;2.43;;
25327;SDS011;13279;51.300;12.394;2022-11-15T13:42:55;3.23;;;2.40;;
25327;SDS011;13279;51.300;12.394;2022-11-15T13:45:24;10.77;;;2.53;;
25327;SDS011;13279;51.300;12.394;2022-11-15T13:47:54;2.37;;;2.17;;
25327;SDS011;13279;51.300;12.394;2022-11-15T13:50:25;3.10;;;2.33;;
25327;SDS011;13279;51.300;12.394;2022-11-15T13:52:56;4.50;;;2.77;;
25327;SDS011;13279;51.300;12.394;2022-11-15T13:55:28;5.43;;;2.37;;
25327;SDS011;13279;51.300;12.394;2022-11-15T13:57:59;3.03;;;2.37;;
25327;SDS011;13279;51.300;12.394;2022-11-15T14:00:35;3.90;;;3.10;;
25327;SDS011;13279;51.300;12.394;2022-11-15T14:03:06;4.30;;;2.20;;
25327;SDS011;13279;51.300;12.394;2022-11-15T14:05:43;6.63;;;2.50;;
25327;SDS011;13279;51.300;12.394;2022-11-15T14:08:21;3.07;;;2.70;;
25327;SDS011;13279;51.300;12.394;2022-11-15T14:11:05;3.23;;;2.93;;
25327;SDS011;13279;51.300;12.394;2022-11-15T14:13:41;6.37;;;3.00;;
25327;SDS011;13279;51.300;12.394;2022-11-15T14:16:32;2.53;;;2.30;;
25327;SDS011;13279;51.300;12.394;2022-11-15T14:19:02;3.00;;;2.70;;
25327;SDS011;13279;51.300;12.394;2022-11-15T14:21:31;4.87;;;3.20;;
25327;SDS011;13279;51.300;12.394;2022-11-15T14:26:56;4.17;;;2.70;;
25327;SDS011;13279;51.300;12.394;2022-11-15T14:30:00;4.20;;;2.60;;
25327;SDS011;13279;51.300;12.394;2022-11-15T14:32:28;8.13;;;3.00;;
25327;SDS011;13279;51.300;12.394;2022-11-15T14:35:09;4.43;;;2.83;;
25327;SDS011;13279;51.300;12.394;2022-11-15T14:37:42;5.20;;;2.63;;
25327;SDS011;13279;51.300;12.394;2022-11-15T14:40:12;5.77;;;2.97;;
25327;SDS011;13279;51.300;12.394;2022-11-15T14:42:41;4.73;;;3.10;;
25327;SDS011;13279;51.300;12.394;2022-11-15T14:45:10;4.83;;;3.00;;
25327;SDS011;13279;51.300;12.394;2022-11-15T14:47:40;14.77;;;3.33;;
25327;SDS011;13279;51.300;12.394;2022-11-15T14:50:10;6.40;;;3.20;;
25327;SDS011;13279;51.300;12.394;2022-11-15T14:52:39;7.10;;;3.77;;
25327;SDS011;13279;51.300;12.394;2022-11-15T14:55:13;6.10;;;3.40;;
25327;SDS011;13279;51.300;12.394;2022-11-15T14:57:45;7.30;;;3.00;;
25327;SDS011;13279;51.300;12.394;2022-11-15T15:00:13;4.67;;;3.77;;
25327;SDS011;13279;51.300;12.394;2022-11-15T15:02:41;7.67;;;3.47;;
25327;SDS011;13279;51.300;12.394;2022-11-15T15:05:12;12.47;;;4.13;;
25327;SDS011;13279;51.300;12.394;2022-11-15T15:07:42;8.57;;;3.73;;
25327;SDS011;13279;51.300;12.394;2022-11-15T15:10:09;4.47;;;3.50;;
25327;SDS011;13279;51.300;12.394;2022-11-15T15:12:39;10.23;;;4.57;;
25327;SDS011;13279;51.300;12.394;2022-11-15T15:15:09;8.80;;;4.10;;
25327;SDS011;13279;51.300;12.394;2022-11-15T15:17:40;9.40;;;4.60;;
25327;SDS011;13279;51.300;12.394;2022-11-15T15:20:08;7.53;;;4.13;;
25327;SDS011;13279;51.300;12.394;2022-11-15T15:22:37;13.90;;;4.70;;
25327;SDS011;13279;51.300;12.394;2022-11-15T15:27:55;5.63;;;3.90;;
25327;SDS011;13279;51.300;12.394;2022-11-15T15:30:22;5.27;;;3.90;;
25327;SDS011;13279;51.300;12.394;2022-11-15T15:32:51;4.90;;;3.63;;
25327;SDS011;13279;51.300;12.394;2022-11-15T15:35:19;7.53;;;4.30;;
25327;SDS011;13279;51.300;12.394;2022-11-15T15:37:47;8.53;;;4.27;;
25327;SDS011;13279;51.300;12.394;2022-11-15T15:40:17;8.10;;;4.27;;
25327;SDS011;13279;51.300;12.394;2022-11-15T15:42:46;13.30;;;4.70;;
25327;SDS011;13279;51.300;12.394;2022-11-15T15:45:15;6.83;;;4.43;;
25327;SDS011;13279;51.300;12.394;2022-11-15T15:47:44;8.03;;;4.43;;
25327;SDS011;13279;51.300;12.394;2022-11-15T15:50:15;7.13;;;4.40;;
25327;SDS011;13279;51.300;12.394;2022-11-15T15:52:47;6.53;;;4.00;;
25327;SDS011;13279;51.300;12.394;2022-11-15T15:55:15;7.80;;;4.73;;
25327;SDS011;13279;51.300;12.394;2022-11-15T15:57:42;8.93;;;4.50;;
25327;SDS011;13279;51.300;12.394;2022-11-15T16:00:10;9.30;;;4.77;;
25327;SDS011;13279;51.300;12.394;2022-11-15T16:02:40;7.10;;;4.40;;
25327;SDS011;13279;51.300;12.394;2022-11-15T16:05:08;14.07;;;5.57;;
25327;SDS011;13279;51.300;12.394;2022-11-15T16:07:36;5.67;;;4.03;;
25327;SDS011;13279;51.300;12.394;2022-11-15T16:10:13;7.77;;;4.43;;
25327;SDS011;13279;51.300;12.394;2022-11-15T16:12:45;9.17;;;5.57;;
25327;SDS011;13279;51.300;12.394;2022-11-15T16:15:12;7.40;;;4.87;;
25327;SDS011;13279;51.300;12.394;2022-11-15T16:17:46;13.07;;;5.00;;
25327;SDS011;13279;51.300;12.394;2022-11-15T16:20:30;10.13;;;5.13;;
25327;SDS011;13279;51.300;12.394;2022-11-15T16:23:00;9.63;;;5.60;;
25327;SDS011;13279;51.300;12.394;2022-11-15T16:25:27;10.20;;;4.80;;
25327;SDS011;13279;51.300;12.394;2022-11-15T16:27:55;12.97;;;5.37;;
25327;SDS011;13279;51.300;12.394;2022-11-15T16:30:22;10.90;;;6.37;;